createdAt,value
2018-09-29T00:01:35.378Z,19.70
2018-09-29T00:04:04.366Z,21.80
2018-09-29T00:06:32.862Z,15.03
2018-09-29T00:09:01.245Z,17.40
2018-09-29T00:11:29.643Z,16.90
2018-09-29T00:13:58.080Z,14.67
2018-09-29T00:16:26.530Z,15.07
2018-09-29T00:18:55.035Z,12.73
2018-09-29T00:21:23.436Z,12.20
2018-09-29T00:23:52.067Z,13.77
2018-09-29T00:26:20.468Z,11.53
2018-09-29T00:28:48.863Z,10.43
2018-09-29T00:31:17.266Z,10.83
2018-09-29T00:33:45.648Z,12.53
2018-09-29T00:36:14.052Z,11.07
2018-09-29T00:38:42.417Z,9.63
2018-09-29T00:41:11.031Z,13.70
2018-09-29T00:43:39.437Z,8.47
2018-09-29T00:46:08.104Z,8.37
2018-09-29T00:48:36.509Z,8.00
2018-09-29T00:51:05.315Z,10.67
2018-09-29T00:53:33.801Z,11.27
2018-09-29T00:56:02.220Z,9.37
2018-09-29T00:58:30.624Z,11.33
2018-09-29T01:00:59.064Z,13.03
2018-09-29T01:03:27.452Z,12.30
2018-09-29T01:05:55.865Z,14.53
2018-09-29T01:08:24.308Z,10.07
2018-09-29T01:10:52.719Z,16.03
2018-09-29T01:13:21.116Z,11.80
2018-09-29T01:15:49.523Z,9.23
2018-09-29T01:18:17.991Z,13.60
2018-09-29T01:20:46.590Z,11.63
2018-09-29T01:23:15.079Z,16.37
2018-09-29T01:25:43.467Z,14.03
2018-09-29T01:28:11.960Z,17.00
2018-09-29T01:30:40.340Z,16.90
2018-09-29T01:33:08.744Z,14.70
2018-09-29T01:35:37.224Z,12.37
2018-09-29T01:38:05.651Z,14.27
2018-09-29T01:40:34.253Z,17.53
2018-09-29T01:43:02.671Z,13.43
2018-09-29T01:45:31.049Z,11.87
2018-09-29T01:47:59.440Z,14.23
2018-09-29T01:50:27.868Z,15.63
2018-09-29T01:52:56.240Z,22.13
2018-09-29T01:55:24.654Z,25.73
2018-09-29T01:57:53.073Z,26.30
2018-09-29T02:00:21.459Z,24.60
2018-09-29T02:02:49.876Z,22.33
2018-09-29T02:05:18.348Z,26.93
2018-09-29T02:07:46.760Z,23.57
2018-09-29T02:10:15.157Z,18.63
2018-09-29T02:12:43.552Z,15.67
2018-09-29T02:15:11.964Z,16.87
2018-09-29T02:17:40.367Z,12.33
2018-09-29T02:20:08.765Z,18.20
2018-09-29T02:22:37.141Z,11.97
2018-09-29T02:25:05.575Z,11.63
2018-09-29T02:27:33.953Z,9.40
2018-09-29T02:30:02.341Z,11.67
2018-09-29T02:32:30.697Z,14.23
2018-09-29T02:34:58.835Z,13.87
2018-09-29T02:37:27.237Z,11.93
2018-09-29T02:39:55.632Z,9.30
2018-09-29T02:42:24.056Z,11.30
2018-09-29T02:44:52.463Z,11.77
2018-09-29T02:47:21.305Z,12.07
2018-09-29T02:49:49.680Z,9.80
2018-09-29T02:52:18.108Z,8.47
2018-09-29T02:54:46.554Z,11.93
2018-09-29T02:57:14.955Z,11.57
2018-09-29T02:59:43.349Z,11.77
2018-09-29T03:02:11.887Z,12.13
2018-09-29T03:04:40.304Z,14.53
2018-09-29T03:07:08.782Z,10.27
2018-09-29T03:09:37.117Z,10.77
2018-09-29T03:12:05.616Z,11.50
2018-09-29T03:14:34.038Z,12.03
2018-09-29T03:17:03.357Z,10.43
2018-09-29T03:19:31.736Z,9.67
2018-09-29T03:22:00.165Z,8.43
2018-09-29T03:24:28.569Z,8.07
2018-09-29T03:26:56.949Z,10.80
2018-09-29T03:29:25.365Z,8.43
2018-09-29T03:31:53.923Z,7.23
2018-09-29T03:34:22.272Z,7.87
2018-09-29T03:36:50.684Z,6.60
2018-09-29T03:39:19.066Z,8.90
2018-09-29T03:41:47.476Z,9.80
2018-09-29T03:44:15.854Z,10.73
2018-09-29T03:46:44.264Z,8.43
2018-09-29T03:49:12.653Z,8.47
2018-09-29T03:51:41.078Z,10.87
2018-09-29T03:54:09.195Z,11.77
2018-09-29T03:56:37.593Z,8.53
2018-09-29T03:59:06.028Z,9.20
2018-09-29T04:01:34.506Z,7.03
2018-09-29T04:04:02.905Z,10.17
2018-09-29T04:06:31.265Z,6.57
2018-09-29T04:08:59.657Z,8.80
2018-09-29T04:11:28.146Z,10.37
2018-09-29T04:13:56.576Z,7.50
2018-09-29T04:16:25.697Z,8.80
2018-09-29T04:18:54.087Z,10.90
2018-09-29T04:21:22.464Z,13.73
2018-09-29T04:23:51.168Z,11.30
2018-09-29T04:26:19.564Z,7.23
2018-09-29T04:28:47.961Z,9.00
2018-09-29T04:31:16.374Z,10.40
2018-09-29T04:33:44.943Z,12.20
2018-09-29T04:36:13.354Z,8.10
2018-09-29T04:38:41.960Z,11.23
2018-09-29T04:41:10.320Z,8.63
2018-09-29T04:43:38.720Z,8.67
2018-09-29T04:46:07.145Z,9.70
2018-09-29T04:48:35.594Z,7.13
2018-09-29T04:51:04.033Z,6.60
2018-09-29T04:53:32.707Z,7.00
2018-09-29T04:56:01.104Z,10.37
2018-09-29T04:58:29.540Z,8.57
2018-09-29T05:00:57.908Z,7.67
2018-09-29T05:03:26.279Z,7.50
2018-09-29T05:05:54.659Z,8.93
2018-09-29T05:08:23.116Z,10.97
2018-09-29T05:10:51.590Z,7.83
2018-09-29T05:13:19.969Z,8.57
2018-09-29T05:15:48.382Z,8.27
2018-09-29T05:18:16.737Z,9.73
2018-09-29T05:20:45.155Z,9.07
2018-09-29T05:23:13.619Z,8.97
2018-09-29T05:25:41.984Z,8.47
2018-09-29T05:28:10.442Z,11.80
2018-09-29T05:30:38.848Z,8.00
2018-09-29T05:33:07.580Z,9.17
2018-09-29T05:35:36.029Z,5.70
2018-09-29T05:38:04.572Z,5.97
2018-09-29T05:40:32.996Z,11.03
2018-09-29T05:43:01.392Z,8.60
2018-09-29T05:45:29.782Z,8.93
2018-09-29T05:47:58.175Z,7.17
2018-09-29T05:50:26.911Z,10.67
2018-09-29T05:52:55.666Z,10.13
2018-09-29T05:55:24.101Z,9.67
2018-09-29T05:57:52.582Z,8.83
2018-09-29T06:00:21.079Z,8.37
2018-09-29T06:02:49.476Z,10.83
2018-09-29T06:05:18.033Z,8.53
2018-09-29T06:07:46.403Z,9.00
2018-09-29T06:10:14.792Z,9.10
2018-09-29T06:12:42.947Z,7.93
2018-09-29T06:15:11.387Z,10.47
2018-09-29T06:17:39.781Z,7.37
2018-09-29T06:20:08.234Z,7.97
2018-09-29T06:22:36.339Z,8.93
2018-09-29T06:25:04.821Z,7.03
2018-09-29T06:27:33.374Z,9.40
2018-09-29T06:30:01.899Z,7.03
2018-09-29T06:32:30.294Z,6.83
2018-09-29T06:34:58.684Z,8.13
2018-09-29T06:37:27.080Z,6.07
2018-09-29T06:39:55.536Z,8.00
2018-09-29T06:42:23.972Z,11.70
2018-09-29T06:44:52.783Z,8.73
2018-09-29T06:47:23.483Z,8.73
2018-09-29T06:49:51.908Z,7.70
2018-09-29T06:52:20.356Z,9.10
2018-09-29T06:54:48.737Z,8.77
2018-09-29T06:57:17.137Z,10.03
2018-09-29T06:59:45.478Z,8.53
2018-09-29T07:02:13.894Z,10.93
2018-09-29T07:04:42.416Z,11.30
2018-09-29T07:07:10.929Z,10.60
2018-09-29T07:09:39.402Z,9.70
2018-09-29T07:12:07.785Z,13.60
2018-09-29T07:14:36.266Z,10.57
2018-09-29T07:17:06.098Z,7.93
2018-09-29T07:19:34.904Z,8.30
2018-09-29T07:22:03.392Z,9.10
2018-09-29T07:24:31.797Z,10.20
2018-09-29T07:27:00.240Z,10.27
2018-09-29T07:29:28.634Z,8.27
2018-09-29T07:31:57.022Z,6.47
2018-09-29T07:34:25.601Z,6.17
2018-09-29T07:36:54.285Z,8.17
2018-09-29T07:39:23.851Z,7.87
2018-09-29T07:41:53.495Z,8.73
2018-09-29T07:44:23.192Z,8.97
2018-09-29T07:46:52.810Z,7.90
2018-09-29T07:49:21.227Z,10.27
2018-09-29T07:51:49.670Z,9.20
2018-09-29T07:54:18.082Z,9.87
2018-09-29T07:56:46.249Z,9.67
2018-09-29T07:59:14.369Z,7.73
2018-09-29T08:01:42.759Z,7.50
2018-09-29T08:04:11.141Z,9.60
2018-09-29T08:06:39.634Z,10.67
2018-09-29T08:09:08.416Z,8.13
2018-09-29T08:11:36.869Z,8.07
2018-09-29T08:14:06.726Z,8.47
2018-09-29T08:16:36.364Z,8.80
2018-09-29T08:19:04.760Z,8.63
2018-09-29T08:21:33.177Z,10.07
2018-09-29T08:24:01.672Z,6.80
2018-09-29T08:26:31.102Z,9.30
2018-09-29T08:29:00.622Z,9.70
2018-09-29T08:31:29.017Z,9.97
2018-09-29T08:33:57.446Z,9.00
2018-09-29T08:36:25.848Z,9.00
2018-09-29T08:38:54.285Z,8.83
2018-09-29T08:41:22.772Z,9.07
2018-09-29T08:43:51.366Z,8.80
2018-09-29T08:46:19.776Z,6.67
2018-09-29T08:48:48.192Z,11.00
2018-09-29T08:51:16.591Z,8.77
2018-09-29T08:53:45.238Z,10.57
2018-09-29T08:56:13.668Z,10.07
2018-09-29T08:58:42.116Z,7.93
2018-09-29T09:01:10.537Z,8.73
2018-09-29T09:03:38.976Z,10.30
2018-09-29T09:06:07.789Z,10.40
2018-09-29T09:08:36.196Z,10.87
2018-09-29T09:11:04.678Z,15.07
2018-09-29T09:13:33.084Z,10.40
2018-09-29T09:16:01.497Z,8.43
2018-09-29T09:18:29.596Z,11.60
2018-09-29T09:20:58.013Z,7.17
2018-09-29T09:23:26.464Z,9.97
2018-09-29T09:25:55.215Z,7.27
2018-09-29T09:28:23.728Z,4.97
2018-09-29T09:30:52.552Z,7.73
2018-09-29T09:33:20.958Z,6.97
2018-09-29T09:35:49.358Z,10.87
2018-09-29T09:38:17.780Z,7.27
2018-09-29T09:40:46.204Z,9.23
2018-09-29T09:43:14.599Z,8.10
2018-09-29T09:45:43.087Z,10.17
2018-09-29T09:48:11.492Z,7.13
2018-09-29T09:50:39.901Z,7.47
2018-09-29T09:53:08.317Z,8.50
2018-09-29T09:55:36.705Z,8.63
2018-09-29T09:58:05.213Z,7.07
2018-09-29T10:00:39.018Z,6.80
2018-09-29T10:03:12.882Z,9.10
2018-09-29T10:05:41.263Z,7.43
2018-09-29T10:08:09.651Z,6.40
2018-09-29T10:10:38.059Z,8.00
2018-09-29T10:13:07.012Z,6.53
2018-09-29T10:15:35.383Z,6.07
2018-09-29T10:18:04.106Z,11.20
2018-09-29T10:20:32.572Z,6.67
2018-09-29T10:23:01.257Z,6.73
2018-09-29T10:25:29.656Z,7.80
2018-09-29T10:27:58.145Z,5.67
2018-09-29T10:30:26.560Z,7.90
2018-09-29T10:32:54.979Z,9.43
2018-09-29T10:35:23.372Z,8.97
2018-09-29T10:37:51.793Z,5.10
2018-09-29T10:40:20.305Z,7.10
2018-09-29T10:42:48.753Z,8.10
2018-09-29T10:45:17.180Z,6.30
2018-09-29T10:47:45.636Z,6.83
2018-09-29T10:50:14.051Z,5.37
2018-09-29T10:52:42.912Z,5.63
2018-09-29T10:55:11.359Z,6.47
2018-09-29T10:57:40.088Z,5.27
2018-09-29T11:00:08.773Z,6.23
2018-09-29T11:02:37.331Z,5.63
2018-09-29T11:05:05.964Z,5.30
2018-09-29T11:07:34.290Z,5.63
2018-09-29T11:10:03.842Z,4.90
2018-09-29T11:12:32.238Z,6.40
2018-09-29T11:15:00.640Z,5.77
2018-09-29T11:17:29.061Z,4.10
2018-09-29T11:19:57.525Z,4.17
2018-09-29T11:22:25.948Z,5.43
2018-09-29T11:24:54.343Z,4.20
2018-09-29T11:27:22.744Z,5.40
2018-09-29T11:29:51.156Z,4.13
2018-09-29T11:32:19.589Z,4.77
2018-09-29T11:34:47.963Z,4.43
2018-09-29T11:37:16.375Z,2.47
2018-09-29T11:39:44.815Z,4.37
2018-09-29T11:42:13.218Z,4.30
2018-09-29T11:44:41.613Z,4.20
2018-09-29T11:47:10.013Z,4.40
2018-09-29T11:49:38.409Z,5.53
2018-09-29T11:52:06.996Z,3.87
2018-09-29T11:54:35.432Z,4.30
2018-09-29T11:57:03.884Z,4.97
2018-09-29T11:59:32.556Z,5.50
2018-09-29T12:02:01.063Z,5.43
2018-09-29T12:04:29.605Z,3.53
2018-09-29T12:06:58.280Z,4.83
2018-09-29T12:09:26.672Z,4.00
2018-09-29T12:11:55.203Z,6.03
2018-09-29T12:14:23.580Z,4.57
2018-09-29T12:16:52.012Z,5.13
2018-09-29T12:19:20.490Z,4.40
2018-09-29T12:21:49.894Z,3.27
2018-09-29T12:24:18.308Z,3.37
2018-09-29T12:26:46.784Z,4.70
2018-09-29T12:29:14.884Z,5.17
2018-09-29T12:31:43.815Z,3.60
2018-09-29T12:34:12.530Z,8.80
2018-09-29T12:36:40.987Z,6.90
2018-09-29T12:39:10.423Z,4.23
2018-09-29T12:41:39.093Z,4.80
2018-09-29T12:44:07.855Z,4.93
2018-09-29T12:46:36.348Z,4.60
2018-09-29T12:49:04.854Z,5.33
2018-09-29T12:51:33.388Z,5.17
2018-09-29T12:54:01.791Z,3.07
2018-09-29T12:56:30.200Z,5.97
2018-09-29T12:58:58.764Z,4.00
2018-09-29T13:01:27.112Z,5.27
2018-09-29T13:03:55.538Z,2.90
2018-09-29T13:06:24.104Z,4.00
2018-09-29T13:08:52.532Z,4.73
2018-09-29T13:11:21.052Z,3.93
2018-09-29T13:13:49.560Z,3.00
2018-09-29T13:16:17.971Z,4.23
2018-09-29T13:18:46.408Z,4.40
2018-09-29T13:21:15.077Z,3.90
2018-09-29T13:23:43.480Z,5.27
2018-09-29T13:26:11.913Z,3.47
2018-09-29T13:28:40.303Z,5.03
2018-09-29T13:31:08.763Z,4.03
2018-09-29T13:33:37.168Z,4.60
2018-09-29T13:36:05.604Z,3.37
2018-09-29T13:38:34.028Z,3.83
2018-09-29T13:41:02.477Z,3.70
2018-09-29T13:43:30.888Z,3.90
2018-09-29T13:45:59.371Z,4.37
2018-09-29T13:48:27.727Z,3.97
2018-09-29T13:50:56.230Z,6.03
2018-09-29T13:53:24.629Z,2.30
2018-09-29T13:55:53.072Z,3.30
2018-09-29T13:58:21.628Z,4.07
2018-09-29T14:00:50.325Z,3.80
2018-09-29T14:03:18.912Z,3.90
2018-09-29T14:05:47.410Z,4.83
2018-09-29T14:08:15.799Z,5.03
2018-09-29T14:10:44.245Z,4.43
2018-09-29T14:13:12.635Z,4.07
2018-09-29T14:15:41.103Z,3.13
2018-09-29T14:18:09.544Z,3.57
2018-09-29T14:20:38.007Z,4.90
2018-09-29T14:23:06.485Z,4.43
2018-09-29T14:25:35.004Z,3.03
2018-09-29T14:28:03.562Z,4.10
2018-09-29T14:30:32.164Z,3.53
2018-09-29T14:33:00.592Z,2.77
2018-09-29T14:35:28.996Z,5.60
2018-09-29T14:37:57.433Z,4.83
2018-09-29T14:40:25.940Z,2.40
2018-09-29T14:42:54.411Z,3.23
2018-09-29T14:45:22.845Z,5.47
2018-09-29T14:47:51.298Z,3.60
2018-09-29T14:50:19.709Z,4.43
2018-09-29T14:52:48.136Z,2.63
2018-09-29T14:55:16.578Z,3.37
2018-09-29T14:57:45.108Z,3.47
2018-09-29T15:00:13.579Z,4.37
2018-09-29T15:02:42.000Z,2.80
2018-09-29T15:05:10.403Z,6.27
2018-09-29T15:07:38.846Z,4.43
2018-09-29T15:10:07.435Z,3.40
2018-09-29T15:12:35.877Z,5.23
2018-09-29T15:15:04.505Z,2.37
2018-09-29T15:17:32.948Z,4.10
2018-09-29T15:20:01.383Z,3.90
2018-09-29T15:22:29.804Z,2.63
2018-09-29T15:24:58.201Z,3.23
2018-09-29T15:27:26.643Z,3.17
2018-09-29T15:29:55.084Z,4.23
2018-09-29T15:32:23.570Z,3.37
2018-09-29T15:34:52.036Z,3.43
2018-09-29T15:37:20.604Z,3.60
2018-09-29T15:39:49.068Z,4.40
2018-09-29T15:42:17.559Z,5.03
2018-09-29T15:44:45.958Z,3.33
2018-09-29T15:47:14.575Z,5.67
2018-09-29T15:49:43.100Z,2.30
2018-09-29T15:52:13.398Z,3.27
2018-09-29T15:54:42.142Z,3.33
2018-09-29T15:57:10.601Z,3.30
2018-09-29T15:59:39.828Z,2.77
2018-09-29T16:02:08.282Z,3.97
2018-09-29T16:04:36.727Z,2.53
2018-09-29T16:07:05.200Z,5.40
2018-09-29T16:09:33.683Z,4.60
2018-09-29T16:12:02.120Z,4.43
2018-09-29T16:14:30.584Z,4.83
2018-09-29T16:16:59.009Z,3.53
2018-09-29T16:19:27.482Z,2.17
2018-09-29T16:21:55.868Z,4.43
2018-09-29T16:24:24.457Z,5.57
2018-09-29T16:26:52.896Z,2.47
2018-09-29T16:29:21.308Z,4.70
2018-09-29T16:31:49.784Z,3.40
2018-09-29T16:34:18.242Z,3.03
2018-09-29T16:36:47.062Z,3.70
2018-09-29T16:39:15.546Z,8.13
2018-09-29T16:41:44.080Z,7.47
2018-09-29T16:44:12.528Z,9.37
2018-09-29T16:46:40.962Z,9.10
2018-09-29T16:49:09.600Z,10.70
2018-09-29T16:51:38.034Z,16.07
2018-09-29T16:54:06.478Z,12.07
2018-09-29T16:56:35.289Z,10.30
2018-09-29T16:59:03.733Z,42.90
2018-09-29T17:01:32.155Z,22.70
2018-09-29T17:04:00.862Z,33.27
2018-09-29T17:06:29.141Z,41.53
2018-09-29T17:08:57.564Z,31.80
2018-09-29T17:11:26.036Z,42.40
2018-09-29T17:13:54.441Z,45.97
2018-09-29T17:16:22.918Z,40.50
2018-09-29T17:18:54.845Z,39.17
2018-09-29T17:21:23.281Z,40.27
2018-09-29T17:23:51.740Z,62.17
2018-09-29T17:26:20.165Z,41.00
2018-09-29T17:28:48.597Z,40.97
2018-09-29T17:31:17.039Z,29.27
2018-09-29T17:33:45.479Z,23.73
2018-09-29T17:36:13.919Z,22.30
2018-09-29T17:38:42.332Z,17.43
2018-09-29T17:41:10.740Z,17.47
2018-09-29T17:43:39.132Z,18.57
2018-09-29T17:46:07.713Z,18.67
2018-09-29T17:48:36.141Z,15.13
2018-09-29T17:51:04.701Z,12.30
2018-09-29T17:53:33.124Z,12.17
2018-09-29T17:56:01.640Z,12.37
2018-09-29T17:58:30.055Z,14.30
2018-09-29T18:00:58.528Z,14.00
2018-09-29T18:03:26.962Z,18.87
2018-09-29T18:05:55.356Z,14.73
2018-09-29T18:08:23.867Z,16.67
2018-09-29T18:10:52.280Z,15.00
2018-09-29T18:13:20.886Z,17.77
2018-09-29T18:15:49.371Z,16.30
2018-09-29T18:18:17.827Z,15.07
2018-09-29T18:20:46.402Z,15.37
2018-09-29T18:23:14.839Z,18.80
2018-09-29T18:25:43.232Z,17.77
2018-09-29T18:28:11.937Z,18.67
2018-09-29T18:30:40.337Z,21.90
2018-09-29T18:33:08.803Z,18.57
2018-09-29T18:35:37.234Z,20.13
2018-09-29T18:38:05.723Z,24.40
2018-09-29T18:40:34.303Z,26.07
2018-09-29T18:43:02.691Z,31.83
2018-09-29T18:45:31.128Z,30.20
2018-09-29T18:47:59.669Z,30.37
2018-09-29T18:50:28.080Z,36.03
2018-09-29T18:52:56.529Z,31.50
2018-09-29T18:55:24.723Z,33.33
2018-09-29T18:57:53.223Z,30.67
2018-09-29T19:00:21.803Z,29.23
2018-09-29T19:02:50.200Z,25.73
2018-09-29T19:05:18.677Z,27.27
2018-09-29T19:07:47.069Z,23.17
2018-09-29T19:10:15.554Z,22.73
2018-09-29T19:12:44.143Z,23.40
2018-09-29T19:15:12.544Z,20.33
2018-09-29T19:17:41.088Z,19.40
2018-09-29T19:20:09.581Z,19.27
2018-09-29T19:22:38.100Z,20.27
2018-09-29T19:25:06.615Z,17.30
2018-09-29T19:27:35.068Z,17.53
2018-09-29T19:30:03.536Z,17.40
2018-09-29T19:32:31.963Z,15.10
2018-09-29T19:35:00.417Z,14.70
2018-09-29T19:37:28.916Z,14.47
2018-09-29T19:39:57.336Z,14.67
2018-09-29T19:42:25.823Z,18.53
2018-09-29T19:44:54.220Z,14.43
2018-09-29T19:47:22.795Z,11.47
2018-09-29T19:49:51.259Z,10.47
2018-09-29T19:52:19.774Z,11.53
2018-09-29T19:54:48.227Z,12.20
2018-09-29T19:57:16.742Z,11.37
2018-09-29T19:59:45.366Z,13.03
2018-09-29T20:02:13.878Z,12.40
2018-09-29T20:04:42.292Z,10.83
2018-09-29T20:07:10.725Z,12.80
2018-09-29T20:09:39.196Z,12.77
2018-09-29T20:12:07.636Z,13.77
2018-09-29T20:14:36.120Z,12.87
2018-09-29T20:17:04.575Z,9.87
2018-09-29T20:19:33.074Z,11.30
2018-09-29T20:22:01.492Z,11.00
2018-09-29T20:24:29.991Z,9.70
2018-09-29T20:26:58.320Z,9.63
2018-09-29T20:29:26.801Z,9.93
2018-09-29T20:31:55.236Z,9.70
2018-09-29T20:34:23.735Z,11.23
2018-09-29T20:36:52.186Z,7.70
2018-09-29T20:39:20.584Z,10.03
2018-09-29T20:41:49.030Z,8.73
2018-09-29T20:44:17.485Z,7.63
2018-09-29T20:46:45.895Z,9.97
2018-09-29T20:49:14.338Z,8.73
2018-09-29T20:51:42.716Z,10.10
2018-09-29T20:54:11.159Z,10.47
2018-09-29T20:56:39.561Z,9.97
2018-09-29T20:59:07.952Z,8.80
2018-09-29T21:01:36.399Z,8.27
2018-09-29T21:04:04.828Z,10.03
2018-09-29T21:06:33.196Z,8.53
2018-09-29T21:09:01.585Z,8.90
2018-09-29T21:11:30.032Z,9.43
2018-09-29T21:13:58.523Z,8.17
2018-09-29T21:16:26.970Z,8.80
2018-09-29T21:18:55.505Z,8.07
2018-09-29T21:21:23.944Z,11.43
2018-09-29T21:23:52.594Z,9.63
2018-09-29T21:26:21.334Z,7.50
2018-09-29T21:28:49.759Z,9.87
2018-09-29T21:31:18.197Z,8.40
2018-09-29T21:33:46.618Z,8.30
2018-09-29T21:36:15.062Z,10.67
2018-09-29T21:38:43.460Z,8.50
2018-09-29T21:41:11.899Z,10.47
2018-09-29T21:43:40.280Z,7.90
2018-09-29T21:46:08.800Z,10.33
2018-09-29T21:48:37.219Z,9.87
2018-09-29T21:51:05.641Z,9.47
2018-09-29T21:53:34.911Z,10.17
2018-09-29T21:56:03.355Z,8.57
2018-09-29T21:58:31.756Z,7.97
2018-09-29T22:01:05.539Z,10.10
2018-09-29T22:03:33.941Z,8.73
2018-09-29T22:06:02.333Z,9.20
2018-09-29T22:08:30.761Z,8.57
2018-09-29T22:10:59.260Z,8.87
2018-09-29T22:13:27.776Z,7.97
2018-09-29T22:15:56.186Z,7.17
2018-09-29T22:18:24.712Z,7.90
2018-09-29T22:20:53.276Z,7.30
2018-09-29T22:23:21.651Z,7.23
2018-09-29T22:25:50.075Z,7.63
2018-09-29T22:28:18.520Z,9.07
2018-09-29T22:30:46.908Z,7.20
2018-09-29T22:33:15.319Z,8.93
2018-09-29T22:35:44.073Z,6.57
2018-09-29T22:38:12.500Z,6.63
2018-09-29T22:40:40.945Z,7.37
2018-09-29T22:43:09.325Z,10.67
2018-09-29T22:45:37.801Z,7.97
2018-09-29T22:48:06.328Z,9.40
2018-09-29T22:50:34.712Z,8.17
2018-09-29T22:53:03.169Z,9.67
2018-09-29T22:55:31.576Z,9.30
2018-09-29T22:58:00.036Z,7.83
2018-09-29T23:00:28.421Z,10.53
2018-09-29T23:02:56.824Z,7.30
2018-09-29T23:05:25.249Z,9.03
2018-09-29T23:07:53.687Z,9.93
2018-09-29T23:10:22.072Z,9.77
2018-09-29T23:12:50.520Z,7.23
2018-09-29T23:15:19.042Z,6.00
2018-09-29T23:17:47.517Z,8.03
2018-09-29T23:20:15.948Z,6.00
2018-09-29T23:22:44.357Z,5.70
2018-09-29T23:25:12.748Z,6.93
2018-09-29T23:27:41.116Z,6.60
2018-09-29T23:30:09.651Z,6.50
2018-09-29T23:32:38.073Z,7.87
2018-09-29T23:35:06.564Z,7.33
2018-09-29T23:37:34.996Z,7.97
2018-09-29T23:40:03.482Z,7.20
2018-09-29T23:42:31.927Z,7.67
2018-09-29T23:45:00.330Z,8.00
2018-09-29T23:47:28.952Z,8.80
2018-09-29T23:49:57.418Z,7.87
2018-09-29T23:52:25.882Z,6.77
2018-09-29T23:54:54.303Z,6.90
2018-09-29T23:57:22.772Z,7.63
2018-09-29T23:59:51.185Z,7.07
